createdAt,value
2022-09-18T00:01:20.992Z,0.60
2022-09-18T00:03:47.974Z,0.50
2022-09-18T00:06:18.364Z,0.50
2022-09-18T00:08:45.375Z,0.50
2022-09-18T00:11:14.680Z,0.60
2022-09-18T00:13:42.919Z,0.43
2022-09-18T00:16:12.077Z,0.60
2022-09-18T00:18:38.999Z,0.50
2022-09-18T00:21:16.179Z,0.87
2022-09-18T00:23:43.520Z,0.60
2022-09-18T00:26:11.968Z,0.70
2022-09-18T00:28:39.294Z,0.50
2022-09-18T00:31:14.371Z,0.50
2022-09-18T00:33:42.150Z,0.60
2022-09-18T00:36:15.253Z,0.60
2022-09-18T00:38:42.790Z,0.60
2022-09-18T00:41:14.912Z,0.50
2022-09-18T00:43:41.945Z,0.50
2022-09-18T00:46:24.089Z,0.50
2022-09-18T00:49:04.072Z,0.60
2022-09-18T00:51:36.291Z,0.47
2022-09-18T00:54:23.382Z,0.50
2022-09-18T00:56:52.454Z,0.50
2022-09-18T00:59:26.734Z,0.50
2022-09-18T01:01:55.375Z,0.50
2022-09-18T01:04:22.681Z,0.40
2022-09-18T01:07:13.803Z,0.40
2022-09-18T01:09:49.683Z,0.50
2022-09-18T01:12:31.225Z,0.50
2022-09-18T01:15:06.688Z,0.50
2022-09-18T01:17:54.360Z,0.60
2022-09-18T01:20:38.163Z,0.50
2022-09-18T01:23:42.295Z,0.50
2022-09-18T01:26:34.865Z,0.40
2022-09-18T01:29:36.995Z,0.40
2022-09-18T01:32:42.336Z,0.50
2022-09-18T01:35:41.914Z,0.50
2022-09-18T01:38:20.807Z,0.60
2022-09-18T01:41:00.304Z,0.57
2022-09-18T01:43:29.842Z,0.60
2022-09-18T01:45:59.988Z,0.50
2022-09-18T01:48:34.449Z,0.40
2022-09-18T01:51:11.245Z,0.53
2022-09-18T01:53:42.279Z,0.50
2022-09-18T01:56:16.585Z,0.40
2022-09-18T01:58:45.055Z,0.50
2022-09-18T02:01:17.021Z,0.63
2022-09-18T02:03:49.179Z,0.40
2022-09-18T02:06:26.361Z,0.40
2022-09-18T02:08:55.613Z,0.43
2022-09-18T02:11:23.532Z,0.40
2022-09-18T02:14:08.632Z,0.50
2022-09-18T02:16:52.366Z,0.50
2022-09-18T02:19:33.005Z,0.50
2022-09-18T02:22:03.671Z,0.50
2022-09-18T02:24:35.850Z,0.40
2022-09-18T02:27:04.539Z,0.40
2022-09-18T02:29:32.565Z,0.40
2022-09-18T02:32:00.683Z,0.47
2022-09-18T02:34:28.922Z,0.50
2022-09-18T02:37:07.360Z,0.40
2022-09-18T02:39:49.450Z,0.40
2022-09-18T02:42:50.591Z,0.40
2022-09-18T02:45:55.151Z,0.40
2022-09-18T02:48:57.015Z,0.40
2022-09-18T02:51:34.302Z,0.50
2022-09-18T02:54:13.014Z,0.40
2022-09-18T02:56:49.501Z,0.30
2022-09-18T02:59:33.686Z,0.40
2022-09-18T03:02:00.935Z,0.40
2022-09-18T03:04:28.315Z,0.40
2022-09-18T03:06:55.509Z,0.40
2022-09-18T03:09:22.584Z,0.40
2022-09-18T03:11:50.333Z,0.40
2022-09-18T03:14:17.266Z,0.50
2022-09-18T03:16:44.086Z,0.50
2022-09-18T03:19:11.891Z,0.40
2022-09-18T03:21:38.873Z,0.40
2022-09-18T03:24:06.411Z,0.50
2022-09-18T03:26:33.402Z,0.40
2022-09-18T03:29:00.236Z,0.40
2022-09-18T03:31:27.105Z,0.40
2022-09-18T03:33:54.023Z,0.40
2022-09-18T03:36:20.812Z,0.60
2022-09-18T03:38:47.615Z,0.40
2022-09-18T03:41:14.393Z,0.40
2022-09-18T03:43:41.862Z,0.40
2022-09-18T03:46:08.793Z,0.40
2022-09-18T03:48:35.678Z,0.37
2022-09-18T03:51:02.491Z,0.40
2022-09-18T03:53:29.326Z,0.40
2022-09-18T03:55:56.394Z,0.50
2022-09-18T03:58:23.181Z,0.40
2022-09-18T04:00:50.284Z,0.40
2022-09-18T04:03:17.198Z,0.40
2022-09-18T04:05:44.063Z,0.40
2022-09-18T04:08:10.896Z,0.40
2022-09-18T04:10:37.781Z,0.40
2022-09-18T04:13:04.563Z,0.40
2022-09-18T04:15:31.398Z,0.50
2022-09-18T04:17:58.268Z,0.40
2022-09-18T04:20:25.204Z,0.40
2022-09-18T04:22:52.054Z,0.40
2022-09-18T04:25:18.948Z,0.40
2022-09-18T04:27:46.137Z,0.40
2022-09-18T04:30:13.231Z,0.40
2022-09-18T04:32:40.402Z,0.40
2022-09-18T04:35:07.731Z,0.47
2022-09-18T04:37:34.577Z,0.50
2022-09-18T04:40:01.654Z,0.40
2022-09-18T04:42:28.518Z,0.40
2022-09-18T04:44:55.321Z,0.60
2022-09-18T04:47:22.151Z,0.50
2022-09-18T04:49:49.147Z,0.50
2022-09-18T04:52:16.008Z,0.50
2022-09-18T04:54:43.266Z,0.60
2022-09-18T04:57:10.075Z,0.60
2022-09-18T04:59:36.902Z,0.70
2022-09-18T05:02:03.877Z,0.60
2022-09-18T05:04:30.702Z,0.80
2022-09-18T05:06:57.559Z,0.70
2022-09-18T05:09:24.424Z,0.50
2022-09-18T05:11:51.392Z,0.50
2022-09-18T05:14:18.233Z,0.80
2022-09-18T05:16:45.293Z,0.50
2022-09-18T05:19:12.100Z,0.50
2022-09-18T05:21:38.927Z,0.50
2022-09-18T05:24:05.885Z,0.60
2022-09-18T05:26:32.787Z,0.60
2022-09-18T05:29:02.822Z,0.60
2022-09-18T05:31:35.735Z,0.50
2022-09-18T05:34:02.728Z,0.50
2022-09-18T05:36:29.531Z,0.60
2022-09-18T05:38:56.935Z,3.10
2022-09-18T05:41:23.779Z,2.80
2022-09-18T05:43:50.743Z,0.70
2022-09-18T05:46:17.660Z,1.90
2022-09-18T05:48:45.132Z,0.70
2022-09-18T05:51:12.008Z,1.97
2022-09-18T05:53:38.822Z,0.80
2022-09-18T05:56:05.708Z,0.60
2022-09-18T05:58:32.618Z,1.00
2022-09-18T06:01:01.642Z,1.47
2022-09-18T06:03:28.503Z,0.83
2022-09-18T06:05:55.558Z,0.70
2022-09-18T06:08:23.056Z,0.50
2022-09-18T06:10:50.623Z,1.10
2022-09-18T06:13:19.067Z,0.60
2022-09-18T06:15:48.170Z,0.60
2022-09-18T06:18:15.722Z,0.50
2022-09-18T06:20:43.715Z,0.50
2022-09-18T06:23:10.974Z,0.90
2022-09-18T06:25:37.998Z,0.60
2022-09-18T06:28:06.595Z,0.50
2022-09-18T06:30:36.448Z,0.50
2022-09-18T06:33:07.913Z,0.40
2022-09-18T06:35:36.059Z,0.40
2022-09-18T06:38:04.261Z,0.40
2022-09-18T06:40:32.118Z,0.40
2022-09-18T06:43:01.662Z,0.40
2022-09-18T06:45:29.587Z,0.50
2022-09-18T06:48:00.654Z,0.50
2022-09-18T06:50:27.436Z,0.40
2022-09-18T06:52:54.238Z,0.40
2022-09-18T06:55:21.128Z,0.40
2022-09-18T06:57:57.659Z,0.40
2022-09-18T07:00:24.627Z,0.47
2022-09-18T07:02:56.278Z,0.40
2022-09-18T07:05:23.438Z,0.50
2022-09-18T07:07:50.293Z,0.40
2022-09-18T07:10:17.179Z,0.40
2022-09-18T07:12:48.393Z,0.43
2022-09-18T07:15:20.050Z,0.40
2022-09-18T07:17:46.915Z,0.50
2022-09-18T07:20:14.162Z,0.50
2022-09-18T07:22:46.441Z,0.50
2022-09-18T07:25:14.163Z,0.40
2022-09-18T07:27:40.996Z,0.40
2022-09-18T07:30:08.387Z,0.50
2022-09-18T07:32:36.227Z,0.50
2022-09-18T07:35:03.314Z,0.50
2022-09-18T07:37:30.165Z,0.40
2022-09-18T07:39:57.023Z,0.50
2022-09-18T07:42:24.012Z,0.40
2022-09-18T07:44:50.815Z,0.50
2022-09-18T07:47:17.654Z,0.50
2022-09-18T07:49:44.470Z,0.40
2022-09-18T07:52:11.867Z,0.50
2022-09-18T07:54:39.017Z,0.40
2022-09-18T07:57:05.961Z,0.50
2022-09-18T07:59:32.797Z,0.50
2022-09-18T08:01:59.688Z,0.40
2022-09-18T08:04:26.571Z,0.53
2022-09-18T08:06:55.106Z,0.50
2022-09-18T08:09:22.525Z,0.50
2022-09-18T08:11:52.338Z,0.40
2022-09-18T08:14:19.194Z,0.40
2022-09-18T08:16:46.151Z,0.50
2022-09-18T08:19:13.130Z,0.40
2022-09-18T08:21:39.963Z,0.53
2022-09-18T08:24:06.886Z,0.50
2022-09-18T08:26:36.244Z,0.50
2022-09-18T08:29:03.142Z,0.50
2022-09-18T08:31:30.024Z,0.50
2022-09-18T08:33:57.322Z,0.50
2022-09-18T08:36:24.201Z,0.50
2022-09-18T08:38:53.957Z,0.40
2022-09-18T08:41:26.990Z,0.40
2022-09-18T08:43:59.967Z,0.50
2022-09-18T08:46:43.957Z,0.50
2022-09-18T08:49:13.586Z,0.40
2022-09-18T08:52:20.205Z,0.50
2022-09-18T08:54:59.083Z,0.40
2022-09-18T08:57:46.831Z,0.47
2022-09-18T09:00:22.092Z,0.50
2022-09-18T09:02:51.895Z,0.40
2022-09-18T09:05:37.854Z,0.50
2022-09-18T09:08:29.739Z,0.50
2022-09-18T09:11:05.365Z,0.40
2022-09-18T09:14:12.643Z,0.50
2022-09-18T09:17:00.394Z,0.50
2022-09-18T09:19:53.621Z,0.40
2022-09-18T09:22:32.624Z,0.40
2022-09-18T09:25:14.370Z,0.40
2022-09-18T09:27:49.378Z,0.40
2022-09-18T09:30:19.343Z,0.50
2022-09-18T09:32:52.147Z,0.40
2022-09-18T09:35:37.606Z,0.40
2022-09-18T09:38:29.468Z,0.40
2022-09-18T09:40:59.026Z,0.40
2022-09-18T09:43:47.457Z,0.40
2022-09-18T09:46:44.305Z,0.50
2022-09-18T09:49:17.587Z,0.43
2022-09-18T09:52:17.834Z,0.50
2022-09-18T09:54:44.865Z,0.43
2022-09-18T09:57:40.917Z,0.40
2022-09-18T10:00:18.033Z,0.50
2022-09-18T10:03:25.726Z,0.40
2022-09-18T10:06:11.084Z,0.50
2022-09-18T10:08:46.594Z,0.40
2022-09-18T10:11:15.272Z,0.40
2022-09-18T10:13:53.715Z,0.50
2022-09-18T10:16:24.552Z,0.40
2022-09-18T10:18:51.737Z,0.40
2022-09-18T10:21:21.234Z,0.40
2022-09-18T10:23:53.409Z,0.40
2022-09-18T10:26:23.407Z,0.40
2022-09-18T10:28:50.678Z,0.50
2022-09-18T10:31:18.213Z,0.40
2022-09-18T10:33:49.032Z,0.40
2022-09-18T10:36:37.943Z,0.50
2022-09-18T10:39:31.181Z,0.50
2022-09-18T10:42:15.582Z,0.40
2022-09-18T10:44:48.875Z,0.40
2022-09-18T10:47:23.302Z,0.40
2022-09-18T10:49:56.797Z,0.40
2022-09-18T10:52:40.036Z,0.47
2022-09-18T10:55:07.320Z,0.50
2022-09-18T10:57:45.936Z,0.40
2022-09-18T11:00:12.996Z,0.40
2022-09-18T11:02:48.063Z,0.40
2022-09-18T11:05:31.651Z,0.40
2022-09-18T11:08:01.046Z,0.40
2022-09-18T11:10:33.077Z,0.40
2022-09-18T11:13:02.311Z,0.40
2022-09-18T11:15:32.359Z,0.40
2022-09-18T11:18:05.117Z,0.30
2022-09-18T11:20:34.810Z,0.40
2022-09-18T11:23:19.819Z,0.40
2022-09-18T11:25:47.208Z,0.40
2022-09-18T11:28:58.071Z,0.40
2022-09-18T11:31:26.319Z,0.40
2022-09-18T11:33:59.933Z,0.40
2022-09-18T11:36:32.630Z,0.40
2022-09-18T11:39:01.715Z,0.40
2022-09-18T11:41:37.611Z,0.40
2022-09-18T11:44:19.505Z,0.40
2022-09-18T11:46:55.269Z,0.50
2022-09-18T11:49:33.749Z,0.40
2022-09-18T11:52:38.858Z,0.40
2022-09-18T11:55:29.051Z,0.40
2022-09-18T11:57:58.924Z,0.40
2022-09-18T12:00:30.242Z,0.40
2022-09-18T12:03:24.602Z,0.40
2022-09-18T12:05:58.534Z,0.40
2022-09-18T12:08:35.542Z,0.40
2022-09-18T12:11:20.902Z,0.40
2022-09-18T12:13:56.766Z,0.40
2022-09-18T12:16:31.324Z,0.40
2022-09-18T12:19:25.536Z,0.40
2022-09-18T12:22:12.539Z,0.37
2022-09-18T12:24:39.482Z,0.40
2022-09-18T12:27:27.623Z,0.40
2022-09-18T12:30:06.807Z,0.40
2022-09-18T12:33:04.019Z,0.40
2022-09-18T12:35:56.811Z,0.40
2022-09-18T12:38:26.639Z,0.40
2022-09-18T12:41:19.637Z,0.40
2022-09-18T12:44:23.574Z,0.33
2022-09-18T12:47:00.358Z,0.30
2022-09-18T12:49:49.014Z,0.30
2022-09-18T12:53:09.872Z,0.50
2022-09-18T12:55:47.724Z,0.40
2022-09-18T12:58:24.280Z,0.40
2022-09-18T13:00:52.611Z,0.40
2022-09-18T13:03:41.103Z,0.40
2022-09-18T13:06:20.233Z,0.40
2022-09-18T13:09:01.691Z,0.40
2022-09-18T13:11:55.113Z,0.40
2022-09-18T13:14:32.044Z,0.40
2022-09-18T13:17:08.433Z,0.40
2022-09-18T13:19:48.160Z,0.40
2022-09-18T13:22:18.691Z,0.40
2022-09-18T13:24:49.409Z,0.40
2022-09-18T13:27:18.126Z,0.30
2022-09-18T13:29:53.948Z,0.40
2022-09-18T13:32:22.522Z,0.40
2022-09-18T13:34:54.166Z,0.40
2022-09-18T13:37:24.026Z,0.37
2022-09-18T13:40:09.265Z,0.40
2022-09-18T13:42:41.153Z,0.40
2022-09-18T13:45:16.741Z,0.40
2022-09-18T13:48:19.634Z,0.40
2022-09-18T13:51:04.677Z,0.40
2022-09-18T13:53:38.482Z,0.40
2022-09-18T13:56:08.120Z,0.30
2022-09-18T13:58:38.346Z,0.30
2022-09-18T14:01:10.257Z,0.40
2022-09-18T14:03:42.043Z,0.40
2022-09-18T14:06:36.761Z,0.40
2022-09-18T14:09:44.675Z,0.40
2022-09-18T14:12:16.310Z,0.90
2022-09-18T14:14:56.097Z,0.40
2022-09-18T14:17:25.375Z,0.40
2022-09-18T14:20:18.234Z,0.40
2022-09-18T14:22:45.144Z,0.37
2022-09-18T14:25:13.935Z,0.40
2022-09-18T14:27:57.064Z,0.40
2022-09-18T14:30:29.595Z,0.40
2022-09-18T14:33:04.101Z,0.50
2022-09-18T14:35:34.015Z,0.40
2022-09-18T14:38:00.866Z,0.40
2022-09-18T14:40:28.000Z,0.33
2022-09-18T14:42:54.858Z,0.40
2022-09-18T14:45:31.550Z,0.40
2022-09-18T14:47:59.518Z,0.40
2022-09-18T14:50:37.413Z,0.40
2022-09-18T14:53:24.389Z,0.40
2022-09-18T14:56:07.746Z,0.40
2022-09-18T14:58:37.750Z,0.40
2022-09-18T15:01:15.081Z,0.40
2022-09-18T15:03:50.398Z,0.30
2022-09-18T15:06:40.367Z,0.40
2022-09-18T15:09:10.831Z,0.40
2022-09-18T15:12:01.318Z,0.40
2022-09-18T15:14:28.854Z,0.30
2022-09-18T15:17:04.066Z,0.40
2022-09-18T15:19:32.222Z,0.40
2022-09-18T15:22:00.258Z,0.43
2022-09-18T15:24:28.146Z,0.40
2022-09-18T15:27:01.406Z,0.40
2022-09-18T15:29:46.535Z,0.30
2022-09-18T15:32:30.467Z,0.40
2022-09-18T15:34:58.439Z,0.40
2022-09-18T15:37:27.621Z,0.40
2022-09-18T15:40:18.984Z,0.40
2022-09-18T15:43:01.899Z,0.40
2022-09-18T15:45:31.365Z,0.33
2022-09-18T15:48:01.314Z,0.40
2022-09-18T15:50:35.867Z,0.43
2022-09-18T15:53:14.511Z,0.40
2022-09-18T15:55:56.514Z,0.40
2022-09-18T15:58:28.742Z,0.40
2022-09-18T16:00:58.634Z,0.40
2022-09-18T16:03:31.403Z,0.40
2022-09-18T16:06:04.999Z,0.50
2022-09-18T16:08:37.658Z,0.63
2022-09-18T16:11:06.465Z,0.40
2022-09-18T16:13:37.089Z,0.40
2022-09-18T16:16:12.827Z,0.40
2022-09-18T16:19:07.271Z,0.50
2022-09-18T16:21:42.709Z,0.47
2022-09-18T16:24:25.378Z,0.40
2022-09-18T16:26:52.286Z,0.50
2022-09-18T16:29:22.206Z,0.60
2022-09-18T16:31:49.211Z,0.50
2022-09-18T16:34:25.599Z,0.50
2022-09-18T16:36:53.834Z,0.90
2022-09-18T16:39:25.611Z,0.60
2022-09-18T16:41:52.908Z,0.53
2022-09-18T16:44:19.971Z,0.50
2022-09-18T16:47:02.193Z,0.50
2022-09-18T16:49:32.480Z,0.40
2022-09-18T16:51:59.655Z,0.43
2022-09-18T16:54:26.462Z,0.50
2022-09-18T16:57:04.167Z,0.53
2022-09-18T16:59:33.011Z,0.53
2022-09-18T17:02:05.129Z,0.50
2022-09-18T17:04:33.009Z,0.50
2022-09-18T17:07:00.702Z,0.50
2022-09-18T17:09:27.586Z,0.50
2022-09-18T17:11:54.827Z,0.60
2022-09-18T17:14:22.827Z,0.60
2022-09-18T17:16:50.003Z,0.67
2022-09-18T17:19:16.861Z,0.80
2022-09-18T17:21:45.965Z,0.80
2022-09-18T17:24:13.439Z,1.00
2022-09-18T17:26:41.870Z,1.10
2022-09-18T17:29:11.642Z,1.10
2022-09-18T17:31:38.665Z,0.80
2022-09-18T17:34:05.854Z,1.00
2022-09-18T17:36:35.946Z,0.67
2022-09-18T17:39:03.109Z,0.40
2022-09-18T17:41:31.203Z,0.50
2022-09-18T17:43:58.053Z,0.60
2022-09-18T17:46:24.861Z,0.60
2022-09-18T17:48:59.619Z,0.53
2022-09-18T17:51:28.941Z,0.57
2022-09-18T17:54:02.940Z,0.50
2022-09-18T17:56:30.987Z,0.63
2022-09-18T17:59:00.228Z,0.60
2022-09-18T18:01:28.774Z,0.60
2022-09-18T18:03:55.938Z,0.70
2022-09-18T18:06:22.958Z,1.07
2022-09-18T18:08:50.684Z,0.67
2022-09-18T18:11:22.100Z,0.57
2022-09-18T18:13:50.286Z,0.50
2022-09-18T18:16:27.412Z,0.50
2022-09-18T18:19:05.852Z,0.40
2022-09-18T18:21:34.152Z,0.53
2022-09-18T18:24:09.057Z,0.43
2022-09-18T18:26:37.862Z,1.20
2022-09-18T18:29:07.374Z,2.53
2022-09-18T18:31:34.322Z,2.40
2022-09-18T18:34:01.363Z,3.07
2022-09-18T18:36:30.423Z,2.93
2022-09-18T18:38:59.758Z,1.20
2022-09-18T18:41:29.114Z,2.20
2022-09-18T18:43:58.046Z,2.37
2022-09-18T18:46:26.977Z,3.03
2022-09-18T18:49:01.832Z,3.50
2022-09-18T18:51:37.262Z,2.87
2022-09-18T18:54:05.603Z,3.10
2022-09-18T18:56:37.547Z,2.90
2022-09-18T18:59:06.857Z,2.87
2022-09-18T19:01:34.043Z,2.13
2022-09-18T19:04:06.685Z,2.90
2022-09-18T19:06:36.407Z,2.87
2022-09-18T19:09:24.552Z,2.70
2022-09-18T19:11:52.868Z,2.23
2022-09-18T19:14:22.003Z,2.00
2022-09-18T19:16:49.710Z,1.83
2022-09-18T19:19:18.442Z,1.50
2022-09-18T19:21:45.931Z,1.63
2022-09-18T19:24:13.462Z,1.77
2022-09-18T19:26:42.023Z,1.80
2022-09-18T19:29:12.369Z,1.53
2022-09-18T19:31:40.961Z,1.30
2022-09-18T19:34:09.447Z,1.87
2022-09-18T19:36:36.582Z,1.60
2022-09-18T19:39:05.582Z,1.10
2022-09-18T19:41:43.114Z,1.50
2022-09-18T19:44:37.214Z,1.20
2022-09-18T19:47:12.733Z,1.60
2022-09-18T19:49:39.683Z,1.47
2022-09-18T19:52:18.082Z,0.80
2022-09-18T19:54:46.299Z,1.00
2022-09-18T19:57:13.238Z,1.10
2022-09-18T19:59:40.027Z,0.90
2022-09-18T20:02:08.805Z,0.80
2022-09-18T20:04:38.131Z,0.70
2022-09-18T20:07:08.005Z,1.03
2022-09-18T20:09:34.843Z,0.83
2022-09-18T20:12:02.093Z,0.80
2022-09-18T20:14:29.183Z,0.90
2022-09-18T20:16:56.090Z,0.70
2022-09-18T20:19:24.457Z,0.80
2022-09-18T20:21:52.385Z,0.60
2022-09-18T20:24:19.659Z,0.93
2022-09-18T20:26:46.565Z,0.70
2022-09-18T20:29:16.172Z,0.80
2022-09-18T20:31:43.492Z,0.80
2022-09-18T20:34:11.118Z,0.60
2022-09-18T20:36:38.254Z,0.87
2022-09-18T20:39:05.371Z,0.80
2022-09-18T20:41:32.543Z,0.97
2022-09-18T20:44:02.968Z,1.00
2022-09-18T20:46:31.522Z,0.90
2022-09-18T20:49:01.030Z,0.90
2022-09-18T20:51:32.506Z,1.40
2022-09-18T20:53:59.307Z,1.30
2022-09-18T20:56:31.426Z,0.77
2022-09-18T20:58:59.045Z,0.90
2022-09-18T21:01:28.121Z,0.70
2022-09-18T21:03:57.814Z,0.80
2022-09-18T21:06:28.001Z,0.70
2022-09-18T21:08:55.582Z,0.90
2022-09-18T21:11:28.271Z,0.77
2022-09-18T21:13:57.638Z,0.70
2022-09-18T21:16:26.560Z,0.73
2022-09-18T21:18:56.709Z,0.60
2022-09-18T21:21:25.123Z,0.80
2022-09-18T21:24:01.189Z,0.97
2022-09-18T21:26:37.046Z,0.70
2022-09-18T21:29:18.036Z,0.77
2022-09-18T21:31:46.588Z,0.90
2022-09-18T21:34:24.428Z,0.90
2022-09-18T21:36:52.966Z,0.90
2022-09-18T21:39:19.757Z,0.90
2022-09-18T21:41:47.667Z,0.80
2022-09-18T21:44:17.312Z,0.70
2022-09-18T21:46:47.961Z,0.70
2022-09-18T21:49:16.307Z,0.60
2022-09-18T21:51:43.631Z,0.97
2022-09-18T21:54:15.512Z,0.73
2022-09-18T21:56:44.235Z,1.00
2022-09-18T21:59:11.666Z,0.70
2022-09-18T22:01:39.065Z,0.70
2022-09-18T22:04:07.389Z,0.80
2022-09-18T22:06:40.869Z,0.70
2022-09-18T22:09:23.515Z,0.70
2022-09-18T22:11:51.683Z,0.90
2022-09-18T22:14:26.442Z,0.60
2022-09-18T22:16:53.763Z,0.67
2022-09-18T22:19:20.748Z,0.70
2022-09-18T22:21:49.507Z,0.77
2022-09-18T22:24:19.621Z,0.63
2022-09-18T22:26:50.519Z,0.57
2022-09-18T22:29:19.701Z,0.63
2022-09-18T22:31:47.229Z,0.60
2022-09-18T22:34:17.484Z,0.60
2022-09-18T22:36:45.532Z,0.60
2022-09-18T22:39:13.839Z,0.90
2022-09-18T22:41:41.123Z,0.70
2022-09-18T22:44:08.753Z,0.70
2022-09-18T22:46:41.131Z,0.60
2022-09-18T22:49:09.172Z,0.73
2022-09-18T22:51:36.077Z,0.60
2022-09-18T22:54:07.727Z,1.13
2022-09-18T22:56:41.424Z,0.63
2022-09-18T22:59:10.785Z,0.60
2022-09-18T23:01:42.568Z,0.80
2022-09-18T23:04:09.977Z,0.70
2022-09-18T23:06:36.884Z,0.80
2022-09-18T23:09:04.745Z,0.57
2022-09-18T23:11:33.528Z,0.70
2022-09-18T23:14:06.290Z,0.70
2022-09-18T23:16:36.250Z,1.00
2022-09-18T23:19:06.783Z,1.10
2022-09-18T23:21:34.876Z,0.80
2022-09-18T23:24:08.632Z,0.90
2022-09-18T23:26:38.293Z,0.80
2022-09-18T23:29:07.915Z,1.00
2022-09-18T23:31:37.684Z,0.70
2022-09-18T23:34:08.182Z,0.60
2022-09-18T23:36:38.389Z,0.70
2022-09-18T23:39:18.505Z,0.90
2022-09-18T23:41:46.350Z,0.60
2022-09-18T23:44:15.434Z,0.60
2022-09-18T23:46:42.917Z,0.67
2022-09-18T23:49:11.194Z,0.70
2022-09-18T23:51:41.736Z,0.60
2022-09-18T23:54:14.917Z,0.63
2022-09-18T23:56:41.791Z,0.70
2022-09-18T23:59:08.601Z,0.80
